sensor_id;sensor_type;location;lat;lon;timestamp;temperature;humidity
1075;DHT22;526;51.392;12.448;2024-01-06T05:01:58;0.10;97.30
1075;DHT22;526;51.392;12.448;2024-01-06T05:04:24;0.00;97.30
1075;DHT22;526;51.392;12.448;2024-01-06T05:06:51;0.00;97.30
1075;DHT22;526;51.392;12.448;2024-01-06T05:09:17;0.10;97.30
1075;DHT22;526;51.392;12.448;2024-01-06T05:11:46;0.10;97.30
1075;DHT22;526;51.392;12.448;2024-01-06T05:14:11;0.20;97.30
1075;DHT22;526;51.392;12.448;2024-01-06T05:16:37;0.20;97.30
1075;DHT22;526;51.392;12.448;2024-01-06T05:19:02;0.10;97.30
1075;DHT22;526;51.392;12.448;2024-01-06T05:21:29;0.00;97.30
1075;DHT22;526;51.392;12.448;2024-01-06T05:23:54;0.00;97.30
1075;DHT22;526;51.392;12.448;2024-01-06T05:26:20;0.00;97.30
1075;DHT22;526;51.392;12.448;2024-01-06T05:28:46;0.00;97.30
1075;DHT22;526;51.392;12.448;2024-01-06T05:31:11;0.00;97.30
1075;DHT22;526;51.392;12.448;2024-01-06T05:33:37;0.10;97.30
1075;DHT22;526;51.392;12.448;2024-01-06T05:36:02;0.10;97.30
1075;DHT22;526;51.392;12.448;2024-01-06T05:38:28;0.10;97.30
1075;DHT22;526;51.392;12.448;2024-01-06T05:40:53;0.10;97.30
1075;DHT22;526;51.392;12.448;2024-01-06T05:43:19;0.00;97.30
1075;DHT22;526;51.392;12.448;2024-01-06T05:45:44;0.00;97.30
1075;DHT22;526;51.392;12.448;2024-01-06T05:48:10;0.00;97.30
1075;DHT22;526;51.392;12.448;2024-01-06T05:50:40;0.00;97.30
1075;DHT22;526;51.392;12.448;2024-01-06T05:53:06;0.10;97.30
1075;DHT22;526;51.392;12.448;2024-01-06T05:55:31;0.10;97.30
1075;DHT22;526;51.392;12.448;2024-01-06T05:57:57;0.10;97.30
1075;DHT22;526;51.392;12.448;2024-01-06T06:00:22;0.00;97.30
1075;DHT22;526;51.392;12.448;2024-01-06T06:02:48;0.00;97.30
1075;DHT22;526;51.392;12.448;2024-01-06T06:05:15;0.00;97.30
1075;DHT22;526;51.392;12.448;2024-01-06T06:07:40;-0.10;97.30
1075;DHT22;526;51.392;12.448;2024-01-06T06:10:10;-0.10;97.30
1075;DHT22;526;51.392;12.448;2024-01-06T06:12:36;-0.20;97.30
1075;DHT22;526;51.392;12.448;2024-01-06T06:15:05;-0.20;97.30
1075;DHT22;526;51.392;12.448;2024-01-06T06:17:32;-0.10;97.30
1075;DHT22;526;51.392;12.448;2024-01-06T06:19:58;-0.10;97.30
1075;DHT22;526;51.392;12.448;2024-01-06T06:22:27;0.00;97.30
1075;DHT22;526;51.392;12.448;2024-01-06T06:24:59;0.00;97.30
1075;DHT22;526;51.392;12.448;2024-01-06T06:27:25;0.00;97.30
1075;DHT22;526;51.392;12.448;2024-01-06T06:29:52;0.00;97.30
1075;DHT22;526;51.392;12.448;2024-01-06T06:32:17;-0.10;97.30
1075;DHT22;526;51.392;12.448;2024-01-06T06:34:43;-0.10;97.30
1075;DHT22;526;51.392;12.448;2024-01-06T06:37:08;-0.10;97.30
1075;DHT22;526;51.392;12.448;2024-01-06T06:39:34;0.00;97.30
1075;DHT22;526;51.392;12.448;2024-01-06T06:42:01;0.00;97.30
1075;DHT22;526;51.392;12.448;2024-01-06T06:44:26;0.00;97.30
1075;DHT22;526;51.392;12.448;2024-01-06T06:46:52;0.10;97.30
1075;DHT22;526;51.392;12.448;2024-01-06T06:49:17;0.10;97.30
1075;DHT22;526;51.392;12.448;2024-01-06T06:51:43;0.10;97.30
1075;DHT22;526;51.392;12.448;2024-01-06T06:54:13;0.10;97.30
1075;DHT22;526;51.392;12.448;2024-01-06T06:56:39;0.20;97.30
1075;DHT22;526;51.392;12.448;2024-01-06T06:59:04;0.10;97.30
1075;DHT22;526;51.392;12.448;2024-01-06T07:01:30;0.10;97.30
1075;DHT22;526;51.392;12.448;2024-01-06T07:03:56;0.10;97.30
1075;DHT22;526;51.392;12.448;2024-01-06T07:06:21;0.10;97.30
1075;DHT22;526;51.392;12.448;2024-01-06T07:08:47;0.10;97.30
1075;DHT22;526;51.392;12.448;2024-01-06T07:11:12;0.10;97.30
1075;DHT22;526;51.392;12.448;2024-01-06T07:13:40;0.00;97.30
1075;DHT22;526;51.392;12.448;2024-01-06T07:16:06;0.10;97.30
1075;DHT22;526;51.392;12.448;2024-01-06T07:18:32;0.10;97.30
1075;DHT22;526;51.392;12.448;2024-01-06T07:20:58;0.10;97.30
1075;DHT22;526;51.392;12.448;2024-01-06T07:23:23;0.10;97.30
1075;DHT22;526;51.392;12.448;2024-01-06T07:25:49;0.10;97.30
1075;DHT22;526;51.392;12.448;2024-01-06T07:28:14;0.10;97.30
1075;DHT22;526;51.392;12.448;2024-01-06T07:30:40;0.10;97.30
1075;DHT22;526;51.392;12.448;2024-01-06T07:33:05;0.10;97.30
1075;DHT22;526;51.392;12.448;2024-01-06T07:35:31;0.10;97.30
1075;DHT22;526;51.392;12.448;2024-01-06T07:37:56;0.20;97.30
1075;DHT22;526;51.392;12.448;2024-01-06T07:40:22;0.30;97.30
1075;DHT22;526;51.392;12.448;2024-01-06T07:42:48;0.40;97.30
1075;DHT22;526;51.392;12.448;2024-01-06T07:45:14;0.50;97.30
1075;DHT22;526;51.392;12.448;2024-01-06T07:47:39;0.50;97.30
1075;DHT22;526;51.392;12.448;2024-01-06T07:50:05;0.60;97.30
1075;DHT22;526;51.392;12.448;2024-01-06T07:52:31;0.60;97.30
1075;DHT22;526;51.392;12.448;2024-01-06T07:54:58;0.70;97.30
1075;DHT22;526;51.392;12.448;2024-01-06T07:57:23;0.70;97.30
1075;DHT22;526;51.392;12.448;2024-01-06T07:59:50;0.80;97.30
1075;DHT22;526;51.392;12.448;2024-01-06T08:02:16;0.90;97.30
1075;DHT22;526;51.392;12.448;2024-01-06T08:04:41;0.90;97.30
1075;DHT22;526;51.392;12.448;2024-01-06T08:07:07;1.00;97.30
1075;DHT22;526;51.392;12.448;2024-01-06T08:09:32;1.10;97.30
1075;DHT22;526;51.392;12.448;2024-01-06T08:11:58;1.10;97.30
1075;DHT22;526;51.392;12.448;2024-01-06T08:14:23;1.20;97.30
1075;DHT22;526;51.392;12.448;2024-01-06T08:16:49;1.20;97.30
1075;DHT22;526;51.392;12.448;2024-01-06T08:19:14;1.30;97.30
1075;DHT22;526;51.392;12.448;2024-01-06T08:21:40;1.30;97.30
1075;DHT22;526;51.392;12.448;2024-01-06T08:24:05;1.40;97.30
1075;DHT22;526;51.392;12.448;2024-01-06T08:26:31;1.40;97.30
1075;DHT22;526;51.392;12.448;2024-01-06T08:28:56;1.50;97.30
1075;DHT22;526;51.392;12.448;2024-01-06T08:31:22;1.50;97.30
1075;DHT22;526;51.392;12.448;2024-01-06T08:33:48;1.50;97.30
1075;DHT22;526;51.392;12.448;2024-01-06T08:36:13;1.50;97.30
1075;DHT22;526;51.392;12.448;2024-01-06T08:38:39;1.60;97.30
1075;DHT22;526;51.392;12.448;2024-01-06T08:41:04;1.60;97.30
1075;DHT22;526;51.392;12.448;2024-01-06T08:43:30;1.60;97.30
1075;DHT22;526;51.392;12.448;2024-01-06T08:45:55;1.60;97.30
1075;DHT22;526;51.392;12.448;2024-01-06T08:48:21;1.70;97.30
1075;DHT22;526;51.392;12.448;2024-01-06T08:50:47;1.70;97.30
1075;DHT22;526;51.392;12.448;2024-01-06T08:53:13;1.70;97.30
1075;DHT22;526;51.392;12.448;2024-01-06T08:55:38;1.70;97.30
1075;DHT22;526;51.392;12.448;2024-01-06T08:58:04;1.70;97.30
1075;DHT22;526;51.392;12.448;2024-01-06T09:00:30;1.80;97.30
1075;DHT22;526;51.392;12.448;2024-01-06T09:02:56;1.80;97.30
1075;DHT22;526;51.392;12.448;2024-01-06T09:05:21;1.80;97.30
1075;DHT22;526;51.392;12.448;2024-01-06T09:07:47;1.90;97.30
1075;DHT22;526;51.392;12.448;2024-01-06T09:10:18;1.90;97.30
1075;DHT22;526;51.392;12.448;2024-01-06T09:12:44;1.90;97.30
1075;DHT22;526;51.392;12.448;2024-01-06T09:15:10;2.00;97.30
1075;DHT22;526;51.392;12.448;2024-01-06T09:17:35;2.00;97.30
1075;DHT22;526;51.392;12.448;2024-01-06T09:20:01;2.00;97.30
1075;DHT22;526;51.392;12.448;2024-01-06T09:22:28;2.10;97.30
1075;DHT22;526;51.392;12.448;2024-01-06T09:24:53;2.10;97.30
1075;DHT22;526;51.392;12.448;2024-01-06T09:27:19;2.20;97.30
1075;DHT22;526;51.392;12.448;2024-01-06T09:29:45;2.20;97.30
1075;DHT22;526;51.392;12.448;2024-01-06T09:32:10;2.20;97.30
1075;DHT22;526;51.392;12.448;2024-01-06T09:34:36;2.30;97.30
1075;DHT22;526;51.392;12.448;2024-01-06T09:37:02;2.30;97.30
1075;DHT22;526;51.392;12.448;2024-01-06T09:39:28;2.30;97.30
1075;DHT22;526;51.392;12.448;2024-01-06T09:41:56;2.40;97.30
1075;DHT22;526;51.392;12.448;2024-01-06T09:44:21;2.40;97.30
1075;DHT22;526;51.392;12.448;2024-01-06T09:46:47;2.40;97.30
1075;DHT22;526;51.392;12.448;2024-01-06T09:49:13;2.40;97.30
1075;DHT22;526;51.392;12.448;2024-01-06T09:51:40;2.50;97.30
1075;DHT22;526;51.392;12.448;2024-01-06T09:54:09;2.50;97.30
1075;DHT22;526;51.392;12.448;2024-01-06T09:56:35;2.60;97.30
1075;DHT22;526;51.392;12.448;2024-01-06T09:59:01;2.60;97.30
1075;DHT22;526;51.392;12.448;2024-01-06T10:01:34;2.60;97.30
1075;DHT22;526;51.392;12.448;2024-01-06T10:04:00;2.70;97.30
1075;DHT22;526;51.392;12.448;2024-01-06T10:06:25;2.70;97.30
1075;DHT22;526;51.392;12.448;2024-01-06T10:08:52;2.70;97.30
1075;DHT22;526;51.392;12.448;2024-01-06T10:11:22;2.70;97.30
1075;DHT22;526;51.392;12.448;2024-01-06T10:13:49;2.80;97.30
1075;DHT22;526;51.392;12.448;2024-01-06T10:16:15;2.80;97.30
1075;DHT22;526;51.392;12.448;2024-01-06T10:18:41;2.90;97.30
1075;DHT22;526;51.392;12.448;2024-01-06T10:21:07;2.90;97.30
1075;DHT22;526;51.392;12.448;2024-01-06T10:23:33;3.00;97.30
1075;DHT22;526;51.392;12.448;2024-01-06T10:25:59;3.00;97.30
1075;DHT22;526;51.392;12.448;2024-01-06T10:28:25;3.00;97.30
1075;DHT22;526;51.392;12.448;2024-01-06T10:30:57;3.00;97.30
1075;DHT22;526;51.392;12.448;2024-01-06T10:33:23;3.00;97.30
1075;DHT22;526;51.392;12.448;2024-01-06T10:35:50;3.00;97.30
1075;DHT22;526;51.392;12.448;2024-01-06T10:38:16;3.10;97.30
1075;DHT22;526;51.392;12.448;2024-01-06T10:41:03;3.10;97.30
1075;DHT22;526;51.392;12.448;2024-01-06T10:43:33;3.20;97.30
1075;DHT22;526;51.392;12.448;2024-01-06T10:46:02;3.20;97.30
1075;DHT22;526;51.392;12.448;2024-01-06T10:48:32;3.30;97.30
1075;DHT22;526;51.392;12.448;2024-01-06T10:50:58;3.30;97.30
1075;DHT22;526;51.392;12.448;2024-01-06T10:53:26;3.40;97.30
1075;DHT22;526;51.392;12.448;2024-01-06T10:55:52;3.40;97.30
1075;DHT22;526;51.392;12.448;2024-01-06T10:58:18;3.50;97.30
1075;DHT22;526;51.392;12.448;2024-01-06T11:00:45;3.50;97.30
1075;DHT22;526;51.392;12.448;2024-01-06T11:03:10;3.50;97.30
1075;DHT22;526;51.392;12.448;2024-01-06T11:05:38;3.60;97.30
1075;DHT22;526;51.392;12.448;2024-01-06T11:08:05;3.60;97.30
1075;DHT22;526;51.392;12.448;2024-01-06T11:10:32;3.60;97.30
1075;DHT22;526;51.392;12.448;2024-01-06T11:13:15;3.60;97.30
1075;DHT22;526;51.392;12.448;2024-01-06T11:15:48;3.70;97.30
1075;DHT22;526;51.392;12.448;2024-01-06T11:18:33;3.70;97.30
1075;DHT22;526;51.392;12.448;2024-01-06T11:23:40;3.70;97.30
1075;DHT22;526;51.392;12.448;2024-01-06T11:26:09;3.70;97.30
1075;DHT22;526;51.392;12.448;2024-01-06T11:28:44;3.70;97.30
1075;DHT22;526;51.392;12.448;2024-01-06T11:31:10;3.80;97.30
1075;DHT22;526;51.392;12.448;2024-01-06T11:33:43;3.80;97.30
1075;DHT22;526;51.392;12.448;2024-01-06T11:36:09;3.90;97.30
1075;DHT22;526;51.392;12.448;2024-01-06T11:38:38;3.90;97.30
1075;DHT22;526;51.392;12.448;2024-01-06T11:41:06;3.90;97.30
1075;DHT22;526;51.392;12.448;2024-01-06T11:43:34;4.00;97.30
1075;DHT22;526;51.392;12.448;2024-01-06T11:46:01;4.00;97.30
1075;DHT22;526;51.392;12.448;2024-01-06T11:48:29;3.90;97.30
1075;DHT22;526;51.392;12.448;2024-01-06T11:50:57;3.90;97.30
1075;DHT22;526;51.392;12.448;2024-01-06T11:53:26;3.90;97.30
1075;DHT22;526;51.392;12.448;2024-01-06T11:55:54;3.90;97.30
1075;DHT22;526;51.392;12.448;2024-01-06T11:58:20;3.90;97.30
1075;DHT22;526;51.392;12.448;2024-01-06T12:00:55;3.90;97.30
1075;DHT22;526;51.392;12.448;2024-01-06T12:03:20;3.90;97.30
1075;DHT22;526;51.392;12.448;2024-01-06T12:05:46;3.90;97.30
1075;DHT22;526;51.392;12.448;2024-01-06T12:08:11;3.80;97.30
1075;DHT22;526;51.392;12.448;2024-01-06T12:10:37;3.70;97.30
1075;DHT22;526;51.392;12.448;2024-01-06T12:13:04;3.70;97.30
1075;DHT22;526;51.392;12.448;2024-01-06T12:15:32;3.70;97.30
1075;DHT22;526;51.392;12.448;2024-01-06T12:17:58;3.70;97.30
1075;DHT22;526;51.392;12.448;2024-01-06T12:20:25;3.70;97.30
1075;DHT22;526;51.392;12.448;2024-01-06T12:22:54;3.70;97.30
1075;DHT22;526;51.392;12.448;2024-01-06T12:25:23;3.70;97.30
1075;DHT22;526;51.392;12.448;2024-01-06T12:27:49;3.70;97.30
1075;DHT22;526;51.392;12.448;2024-01-06T12:30:17;3.70;97.30
1075;DHT22;526;51.392;12.448;2024-01-06T12:32:45;3.60;97.30
1075;DHT22;526;51.392;12.448;2024-01-06T12:35:11;3.60;97.30
1075;DHT22;526;51.392;12.448;2024-01-06T12:37:37;3.60;97.30
1075;DHT22;526;51.392;12.448;2024-01-06T12:40:03;3.50;97.30
1075;DHT22;526;51.392;12.448;2024-01-06T12:42:29;3.50;97.30
1075;DHT22;526;51.392;12.448;2024-01-06T12:44:54;3.40;97.30
1075;DHT22;526;51.392;12.448;2024-01-06T12:47:20;3.40;97.30
1075;DHT22;526;51.392;12.448;2024-01-06T12:49:45;3.40;97.30
1075;DHT22;526;51.392;12.448;2024-01-06T12:52:11;3.40;97.30
1075;DHT22;526;51.392;12.448;2024-01-06T12:54:37;3.30;97.30
1075;DHT22;526;51.392;12.448;2024-01-06T12:57:03;3.20;97.30
1075;DHT22;526;51.392;12.448;2024-01-06T12:59:28;3.20;97.30
1075;DHT22;526;51.392;12.448;2024-01-06T13:01:55;3.20;97.30
1075;DHT22;526;51.392;12.448;2024-01-06T13:04:21;3.10;97.30
1075;DHT22;526;51.392;12.448;2024-01-06T13:06:47;3.10;97.30
1075;DHT22;526;51.392;12.448;2024-01-06T13:09:14;3.10;97.30
1075;DHT22;526;51.392;12.448;2024-01-06T13:11:42;3.10;97.30
1075;DHT22;526;51.392;12.448;2024-01-06T13:14:07;3.10;97.30
1075;DHT22;526;51.392;12.448;2024-01-06T13:16:33;3.10;97.30
1075;DHT22;526;51.392;12.448;2024-01-06T13:19:00;3.00;97.30
1075;DHT22;526;51.392;12.448;2024-01-06T13:21:26;3.00;97.30
1075;DHT22;526;51.392;12.448;2024-01-06T13:23:53;3.00;97.30
1075;DHT22;526;51.392;12.448;2024-01-06T13:26:19;3.00;97.30
1075;DHT22;526;51.392;12.448;2024-01-06T13:28:44;3.00;97.30
1075;DHT22;526;51.392;12.448;2024-01-06T13:31:11;3.00;97.30
1075;DHT22;526;51.392;12.448;2024-01-06T13:33:36;3.00;97.30
1075;DHT22;526;51.392;12.448;2024-01-06T13:36:02;3.00;97.30
1075;DHT22;526;51.392;12.448;2024-01-06T13:38:29;3.00;97.30
1075;DHT22;526;51.392;12.448;2024-01-06T13:40:55;3.10;97.30
1075;DHT22;526;51.392;12.448;2024-01-06T13:43:20;3.10;97.30
1075;DHT22;526;51.392;12.448;2024-01-06T13:45:46;3.00;97.30
1075;DHT22;526;51.392;12.448;2024-01-06T13:48:12;3.00;97.30
1075;DHT22;526;51.392;12.448;2024-01-06T13:50:38;3.00;97.30
1075;DHT22;526;51.392;12.448;2024-01-06T13:53:04;3.00;97.30
1075;DHT22;526;51.392;12.448;2024-01-06T13:55:32;3.00;97.30
1075;DHT22;526;51.392;12.448;2024-01-06T13:57:58;2.90;97.30
1075;DHT22;526;51.392;12.448;2024-01-06T14:00:24;2.90;97.30
1075;DHT22;526;51.392;12.448;2024-01-06T14:02:50;2.90;97.30
1075;DHT22;526;51.392;12.448;2024-01-06T14:05:16;2.90;97.30
1075;DHT22;526;51.392;12.448;2024-01-06T14:07:41;2.90;97.30
1075;DHT22;526;51.392;12.448;2024-01-06T14:10:11;2.90;97.30
1075;DHT22;526;51.392;12.448;2024-01-06T14:12:38;2.90;97.30
1075;DHT22;526;51.392;12.448;2024-01-06T14:15:04;2.90;97.30
1075;DHT22;526;51.392;12.448;2024-01-06T14:17:31;2.90;97.30
1075;DHT22;526;51.392;12.448;2024-01-06T14:19:57;2.90;97.30
1075;DHT22;526;51.392;12.448;2024-01-06T14:22:22;2.90;97.30
1075;DHT22;526;51.392;12.448;2024-01-06T14:24:48;2.80;97.30
1075;DHT22;526;51.392;12.448;2024-01-06T14:27:14;2.80;97.30
1075;DHT22;526;51.392;12.448;2024-01-06T14:29:40;2.80;97.30
1075;DHT22;526;51.392;12.448;2024-01-06T14:32:06;2.70;97.30
1075;DHT22;526;51.392;12.448;2024-01-06T14:34:31;2.70;97.30
1075;DHT22;526;51.392;12.448;2024-01-06T14:36:57;2.70;97.30
1075;DHT22;526;51.392;12.448;2024-01-06T14:39:22;2.60;97.30
1075;DHT22;526;51.392;12.448;2024-01-06T14:41:48;2.60;97.30
1075;DHT22;526;51.392;12.448;2024-01-06T14:44:14;2.60;97.30
1075;DHT22;526;51.392;12.448;2024-01-06T14:46:40;2.60;97.30
1075;DHT22;526;51.392;12.448;2024-01-06T14:49:07;2.60;97.30
1075;DHT22;526;51.392;12.448;2024-01-06T14:51:32;2.60;97.30
1075;DHT22;526;51.392;12.448;2024-01-06T14:53:58;2.60;97.30
1075;DHT22;526;51.392;12.448;2024-01-06T14:56:24;2.60;97.30
1075;DHT22;526;51.392;12.448;2024-01-06T14:58:51;2.50;97.30
1075;DHT22;526;51.392;12.448;2024-01-06T15:01:16;2.60;97.30
1075;DHT22;526;51.392;12.448;2024-01-06T15:03:42;2.60;97.30
1075;DHT22;526;51.392;12.448;2024-01-06T15:06:08;2.60;97.30
1075;DHT22;526;51.392;12.448;2024-01-06T15:08:33;2.60;97.30
1075;DHT22;526;51.392;12.448;2024-01-06T15:10:59;2.60;97.30
1075;DHT22;526;51.392;12.448;2024-01-06T15:13:24;2.60;97.30
1075;DHT22;526;51.392;12.448;2024-01-06T15:15:50;2.60;97.30
1075;DHT22;526;51.392;12.448;2024-01-06T15:18:17;2.50;97.30
1075;DHT22;526;51.392;12.448;2024-01-06T15:20:45;2.50;97.30
1075;DHT22;526;51.392;12.448;2024-01-06T15:23:11;2.50;97.30
1075;DHT22;526;51.392;12.448;2024-01-06T15:25:36;2.40;97.30
1075;DHT22;526;51.392;12.448;2024-01-06T15:28:02;2.40;97.30
1075;DHT22;526;51.392;12.448;2024-01-06T15:30:28;2.40;97.30
1075;DHT22;526;51.392;12.448;2024-01-06T15:32:54;2.40;97.30
1075;DHT22;526;51.392;12.448;2024-01-06T15:35:19;2.40;97.30
1075;DHT22;526;51.392;12.448;2024-01-06T15:37:45;2.40;97.30
1075;DHT22;526;51.392;12.448;2024-01-06T15:40:12;2.30;97.30
1075;DHT22;526;51.392;12.448;2024-01-06T15:42:38;2.30;97.30
1075;DHT22;526;51.392;12.448;2024-01-06T15:45:04;2.30;97.30
1075;DHT22;526;51.392;12.448;2024-01-06T15:47:29;2.30;97.30
1075;DHT22;526;51.392;12.448;2024-01-06T15:49:55;2.30;97.30
1075;DHT22;526;51.392;12.448;2024-01-06T15:52:20;2.30;97.30
1075;DHT22;526;51.392;12.448;2024-01-06T15:54:48;2.30;97.30
1075;DHT22;526;51.392;12.448;2024-01-06T15:57:14;2.20;97.30
1075;DHT22;526;51.392;12.448;2024-01-06T15:59:40;2.30;97.30
1075;DHT22;526;51.392;12.448;2024-01-06T16:02:05;2.30;97.30
1075;DHT22;526;51.392;12.448;2024-01-06T16:04:31;2.30;97.30
1075;DHT22;526;51.392;12.448;2024-01-06T16:06:56;2.30;97.30
1075;DHT22;526;51.392;12.448;2024-01-06T16:09:22;2.30;97.30
1075;DHT22;526;51.392;12.448;2024-01-06T16:11:51;2.20;97.30
1075;DHT22;526;51.392;12.448;2024-01-06T16:14:17;2.20;97.30
1075;DHT22;526;51.392;12.448;2024-01-06T16:16:43;2.20;97.30
1075;DHT22;526;51.392;12.448;2024-01-06T16:19:08;2.10;97.30
1075;DHT22;526;51.392;12.448;2024-01-06T16:21:34;2.10;97.30
1075;DHT22;526;51.392;12.448;2024-01-06T16:23:59;2.10;97.30
1075;DHT22;526;51.392;12.448;2024-01-06T16:26:25;2.10;97.30
1075;DHT22;526;51.392;12.448;2024-01-06T16:28:51;2.10;97.30
1075;DHT22;526;51.392;12.448;2024-01-06T16:31:17;2.10;97.30
1075;DHT22;526;51.392;12.448;2024-01-06T16:33:43;2.10;97.30
1075;DHT22;526;51.392;12.448;2024-01-06T16:36:08;2.10;97.30
1075;DHT22;526;51.392;12.448;2024-01-06T16:38:37;2.10;97.30
1075;DHT22;526;51.392;12.448;2024-01-06T16:41:02;2.10;97.30
1075;DHT22;526;51.392;12.448;2024-01-06T16:43:34;2.10;97.30
1075;DHT22;526;51.392;12.448;2024-01-06T16:46:03;2.00;97.30
1075;DHT22;526;51.392;12.448;2024-01-06T16:48:30;2.00;97.30
1075;DHT22;526;51.392;12.448;2024-01-06T16:50:55;2.00;97.30
1075;DHT22;526;51.392;12.448;2024-01-06T16:53:21;2.00;97.30
1075;DHT22;526;51.392;12.448;2024-01-06T16:55:46;2.00;97.30
1075;DHT22;526;51.392;12.448;2024-01-06T16:58:12;2.00;97.30
1075;DHT22;526;51.392;12.448;2024-01-06T17:00:38;2.00;97.30
1075;DHT22;526;51.392;12.448;2024-01-06T17:03:04;2.00;97.30
1075;DHT22;526;51.392;12.448;2024-01-06T17:05:29;2.00;97.30
1075;DHT22;526;51.392;12.448;2024-01-06T17:07:56;2.00;97.30
1075;DHT22;526;51.392;12.448;2024-01-06T17:10:21;2.00;97.30
1075;DHT22;526;51.392;12.448;2024-01-06T17:12:49;1.90;97.30
1075;DHT22;526;51.392;12.448;2024-01-06T17:15:14;1.90;97.30
1075;DHT22;526;51.392;12.448;2024-01-06T17:17:40;1.90;97.30
1075;DHT22;526;51.392;12.448;2024-01-06T17:20:07;1.90;97.30
1075;DHT22;526;51.392;12.448;2024-01-06T17:22:33;1.90;97.30
1075;DHT22;526;51.392;12.448;2024-01-06T17:24:59;1.90;97.30
1075;DHT22;526;51.392;12.448;2024-01-06T17:27:25;1.90;97.30
1075;DHT22;526;51.392;12.448;2024-01-06T17:29:50;1.90;97.30
1075;DHT22;526;51.392;12.448;2024-01-06T17:32:17;1.90;97.30
1075;DHT22;526;51.392;12.448;2024-01-06T17:34:43;1.90;97.30
1075;DHT22;526;51.392;12.448;2024-01-06T17:37:09;1.90;97.30
1075;DHT22;526;51.392;12.448;2024-01-06T17:39:35;1.90;97.30
1075;DHT22;526;51.392;12.448;2024-01-06T17:42:03;1.90;97.30
1075;DHT22;526;51.392;12.448;2024-01-06T17:44:30;1.90;97.30
1075;DHT22;526;51.392;12.448;2024-01-06T17:46:56;1.90;97.30
1075;DHT22;526;51.392;12.448;2024-01-06T17:49:22;1.90;97.30
1075;DHT22;526;51.392;12.448;2024-01-06T17:51:47;1.90;97.30
1075;DHT22;526;51.392;12.448;2024-01-06T17:54:13;1.90;97.30
1075;DHT22;526;51.392;12.448;2024-01-06T17:56:39;1.90;97.30
1075;DHT22;526;51.392;12.448;2024-01-06T17:59:05;1.90;97.30
1075;DHT22;526;51.392;12.448;2024-01-06T18:01:33;1.90;97.30
1075;DHT22;526;51.392;12.448;2024-01-06T18:04:00;1.90;97.30
1075;DHT22;526;51.392;12.448;2024-01-06T18:06:28;1.80;97.30
1075;DHT22;526;51.392;12.448;2024-01-06T18:08:54;1.80;97.30
1075;DHT22;526;51.392;12.448;2024-01-06T18:11:20;1.80;97.30
1075;DHT22;526;51.392;12.448;2024-01-06T18:13:45;1.80;97.30
1075;DHT22;526;51.392;12.448;2024-01-06T18:16:14;1.80;97.30
1075;DHT22;526;51.392;12.448;2024-01-06T18:18:39;1.80;97.30
1075;DHT22;526;51.392;12.448;2024-01-06T18:21:05;1.70;97.30
1075;DHT22;526;51.392;12.448;2024-01-06T18:23:31;1.70;97.30
1075;DHT22;526;51.392;12.448;2024-01-06T18:25:56;1.80;97.30
1075;DHT22;526;51.392;12.448;2024-01-06T18:28:22;1.80;97.30
1075;DHT22;526;51.392;12.448;2024-01-06T18:30:50;1.80;97.30
1075;DHT22;526;51.392;12.448;2024-01-06T18:33:15;1.80;97.30
1075;DHT22;526;51.392;12.448;2024-01-06T18:35:41;1.80;97.30
1075;DHT22;526;51.392;12.448;2024-01-06T18:38:07;1.80;97.30
1075;DHT22;526;51.392;12.448;2024-01-06T18:40:32;1.80;97.30
1075;DHT22;526;51.392;12.448;2024-01-06T18:42:58;1.70;97.30
1075;DHT22;526;51.392;12.448;2024-01-06T18:45:23;1.80;97.30
1075;DHT22;526;51.392;12.448;2024-01-06T18:47:51;1.70;97.30
1075;DHT22;526;51.392;12.448;2024-01-06T18:50:16;1.70;97.30
1075;DHT22;526;51.392;12.448;2024-01-06T18:52:45;1.70;97.30
1075;DHT22;526;51.392;12.448;2024-01-06T18:55:11;1.70;97.30
1075;DHT22;526;51.392;12.448;2024-01-06T18:57:37;1.70;97.30
1075;DHT22;526;51.392;12.448;2024-01-06T19:00:03;1.60;97.30
1075;DHT22;526;51.392;12.448;2024-01-06T19:02:31;1.60;97.30
1075;DHT22;526;51.392;12.448;2024-01-06T19:04:56;1.60;97.30
1075;DHT22;526;51.392;12.448;2024-01-06T19:07:22;1.60;97.30
1075;DHT22;526;51.392;12.448;2024-01-06T19:09:48;1.60;97.30
1075;DHT22;526;51.392;12.448;2024-01-06T19:12:14;1.60;97.30
1075;DHT22;526;51.392;12.448;2024-01-06T19:17:12;1.50;97.30
1075;DHT22;526;51.392;12.448;2024-01-06T19:19:38;1.50;97.30
1075;DHT22;526;51.392;12.448;2024-01-06T19:22:06;1.40;97.30
1075;DHT22;526;51.392;12.448;2024-01-06T19:24:32;1.40;97.30
1075;DHT22;526;51.392;12.448;2024-01-06T19:26:57;1.40;97.30
1075;DHT22;526;51.392;12.448;2024-01-06T19:29:23;1.40;97.30
1075;DHT22;526;51.392;12.448;2024-01-06T19:31:49;1.40;97.30
1075;DHT22;526;51.392;12.448;2024-01-06T19:34:15;1.40;97.30
1075;DHT22;526;51.392;12.448;2024-01-06T19:36:40;1.40;97.30
1075;DHT22;526;51.392;12.448;2024-01-06T19:39:06;1.40;97.30
1075;DHT22;526;51.392;12.448;2024-01-06T19:41:31;1.40;97.30
1075;DHT22;526;51.392;12.448;2024-01-06T19:43:57;1.30;97.30
1075;DHT22;526;51.392;12.448;2024-01-06T19:46:26;1.30;97.30
1075;DHT22;526;51.392;12.448;2024-01-06T19:48:52;1.30;97.30
1075;DHT22;526;51.392;12.448;2024-01-06T19:51:17;1.20;97.30
1075;DHT22;526;51.392;12.448;2024-01-06T19:53:43;1.20;97.30
1075;DHT22;526;51.392;12.448;2024-01-06T19:56:13;1.20;97.30
1075;DHT22;526;51.392;12.448;2024-01-06T19:58:39;1.20;97.30
1075;DHT22;526;51.392;12.448;2024-01-06T20:01:05;1.20;97.30
1075;DHT22;526;51.392;12.448;2024-01-06T20:03:30;1.10;97.30
1075;DHT22;526;51.392;12.448;2024-01-06T20:05:56;1.10;97.30
1075;DHT22;526;51.392;12.448;2024-01-06T20:08:22;1.10;97.30
1075;DHT22;526;51.392;12.448;2024-01-06T20:10:47;1.10;97.30
1075;DHT22;526;51.392;12.448;2024-01-06T20:13:13;1.10;97.30
1075;DHT22;526;51.392;12.448;2024-01-06T20:15:38;1.10;97.30
1075;DHT22;526;51.392;12.448;2024-01-06T20:18:05;1.00;97.30
1075;DHT22;526;51.392;12.448;2024-01-06T20:20:31;1.00;97.30
1075;DHT22;526;51.392;12.448;2024-01-06T20:22:56;1.00;97.30
1075;DHT22;526;51.392;12.448;2024-01-06T20:25:22;1.00;97.30
1075;DHT22;526;51.392;12.448;2024-01-06T20:27:48;1.00;97.30
1075;DHT22;526;51.392;12.448;2024-01-06T20:30:13;1.00;97.30
1075;DHT22;526;51.392;12.448;2024-01-06T20:32:39;1.00;97.30
1075;DHT22;526;51.392;12.448;2024-01-06T20:35:05;0.90;97.30
1075;DHT22;526;51.392;12.448;2024-01-06T20:37:32;0.90;97.30
1075;DHT22;526;51.392;12.448;2024-01-06T20:39:57;0.90;97.30
1075;DHT22;526;51.392;12.448;2024-01-06T20:42:23;0.90;97.30
1075;DHT22;526;51.392;12.448;2024-01-06T20:44:48;0.90;97.30
1075;DHT22;526;51.392;12.448;2024-01-06T20:47:14;0.90;97.30
1075;DHT22;526;51.392;12.448;2024-01-06T20:49:40;0.90;97.30
1075;DHT22;526;51.392;12.448;2024-01-06T20:52:06;0.90;97.30
1075;DHT22;526;51.392;12.448;2024-01-06T20:54:32;0.90;97.30
1075;DHT22;526;51.392;12.448;2024-01-06T20:56:57;0.90;97.30
1075;DHT22;526;51.392;12.448;2024-01-06T20:59:23;0.90;97.30
1075;DHT22;526;51.392;12.448;2024-01-06T21:01:49;0.90;97.30
1075;DHT22;526;51.392;12.448;2024-01-06T21:04:16;0.80;97.30
1075;DHT22;526;51.392;12.448;2024-01-06T21:06:42;0.90;97.30
1075;DHT22;526;51.392;12.448;2024-01-06T21:09:08;0.80;97.30
1075;DHT22;526;51.392;12.448;2024-01-06T21:11:34;0.80;97.30
1075;DHT22;526;51.392;12.448;2024-01-06T21:14:00;0.80;97.30
1075;DHT22;526;51.392;12.448;2024-01-06T21:16:25;0.80;97.30